createdAt,value
2018-07-25T00:00:04.322Z,15.13
2018-07-25T00:02:32.367Z,16.90
2018-07-25T00:05:01.238Z,13.40
2018-07-25T00:07:29.285Z,17.35
2018-07-25T00:09:57.340Z,14.50
2018-07-25T00:12:25.768Z,12.25
2018-07-25T00:14:53.821Z,13.10
2018-07-25T00:17:21.892Z,17.05
2018-07-25T00:19:49.944Z,14.05
2018-07-25T00:22:18.020Z,13.48
2018-07-25T00:24:46.080Z,14.68
2018-07-25T00:27:14.125Z,16.48
2018-07-25T00:29:42.191Z,14.85
2018-07-25T00:32:10.696Z,17.42
2018-07-25T00:34:38.749Z,19.55
2018-07-25T00:37:07.064Z,13.40
2018-07-25T00:39:35.121Z,13.10
2018-07-25T00:42:03.175Z,16.35
2018-07-25T00:44:31.232Z,10.65
2018-07-25T00:46:59.296Z,14.20
2018-07-25T00:49:27.431Z,11.93
2018-07-25T00:51:55.468Z,12.35
2018-07-25T00:54:23.512Z,9.60
2018-07-25T00:56:51.556Z,9.63
2018-07-25T00:59:19.591Z,8.68
2018-07-25T01:01:47.647Z,10.15
2018-07-25T01:04:15.680Z,10.72
2018-07-25T01:06:43.752Z,14.07
2018-07-25T01:09:12.323Z,11.73
2018-07-25T01:11:40.676Z,11.00
2018-07-25T01:14:08.774Z,12.03
2018-07-25T01:16:36.836Z,16.45
2018-07-25T01:19:04.905Z,18.12
2018-07-25T01:21:32.980Z,16.87
2018-07-25T01:24:01.014Z,15.13
2018-07-25T01:26:29.052Z,19.55
2018-07-25T01:28:57.089Z,16.87
2018-07-25T01:31:25.132Z,20.60
2018-07-25T01:33:53.168Z,17.92
2018-07-25T01:36:21.217Z,19.80
2018-07-25T01:38:49.256Z,12.70
2018-07-25T01:41:17.325Z,13.50
2018-07-25T01:43:45.369Z,11.97
2018-07-25T01:46:13.412Z,13.13
2018-07-25T01:48:41.443Z,13.62
2018-07-25T01:51:09.510Z,11.75
2018-07-25T01:53:37.556Z,14.55
2018-07-25T01:56:05.937Z,12.93
2018-07-25T01:58:33.967Z,16.23
2018-07-25T02:01:02.040Z,12.18
2018-07-25T02:03:30.083Z,12.75
2018-07-25T02:05:58.142Z,12.00
2018-07-25T02:08:26.190Z,11.45
2018-07-25T02:10:54.228Z,15.48
2018-07-25T02:13:22.268Z,13.45
2018-07-25T02:15:50.334Z,15.30
2018-07-25T02:18:18.371Z,10.50
2018-07-25T02:20:46.456Z,11.50
2018-07-25T02:23:14.489Z,13.78
2018-07-25T02:25:42.552Z,10.82
2018-07-25T02:28:10.584Z,9.05
2018-07-25T02:30:38.632Z,10.10
2018-07-25T02:33:06.932Z,16.30
2018-07-25T02:35:34.964Z,11.73
2018-07-25T02:38:03.008Z,11.53
2018-07-25T02:40:31.084Z,13.48
2018-07-25T02:42:59.131Z,7.28
2018-07-25T02:45:31.228Z,9.15
2018-07-25T02:47:59.260Z,8.18
2018-07-25T02:50:27.292Z,8.35
2018-07-25T02:52:55.425Z,5.72
2018-07-25T02:55:23.476Z,7.37
2018-07-25T02:57:51.534Z,8.48
2018-07-25T03:00:19.577Z,8.95
2018-07-25T03:02:47.629Z,8.20
2018-07-25T03:05:15.672Z,10.55
2018-07-25T03:07:43.719Z,9.35
2018-07-25T03:10:11.776Z,13.13
2018-07-25T03:12:39.817Z,7.28
2018-07-25T03:15:07.880Z,7.33
2018-07-25T03:17:35.916Z,5.50
2018-07-25T03:20:03.984Z,6.75
2018-07-25T03:22:32.068Z,5.35
2018-07-25T03:25:00.127Z,7.03
2018-07-25T03:27:28.200Z,5.87
2018-07-25T03:29:56.251Z,9.48
2018-07-25T03:32:24.271Z,8.03
2018-07-25T03:34:52.299Z,6.33
2018-07-25T03:37:20.346Z,7.80
2018-07-25T03:39:48.396Z,8.70
2018-07-25T03:42:16.444Z,8.23
2018-07-25T03:44:44.519Z,6.55
2018-07-25T03:47:12.659Z,8.50
2018-07-25T03:49:40.703Z,12.05
2018-07-25T03:52:08.753Z,11.48
2018-07-25T03:54:36.792Z,7.95
2018-07-25T03:57:05.105Z,13.10
2018-07-25T03:59:33.148Z,11.18
2018-07-25T04:02:01.232Z,9.73
2018-07-25T04:04:29.255Z,7.45
2018-07-25T04:06:57.307Z,8.63
2018-07-25T04:09:25.359Z,12.23
2018-07-25T04:11:53.396Z,9.98
2018-07-25T04:14:21.441Z,8.70
2018-07-25T04:16:49.476Z,8.15
2018-07-25T04:19:17.532Z,12.37
2018-07-25T04:21:45.598Z,12.55
2018-07-25T04:24:13.635Z,9.23
2018-07-25T04:26:41.684Z,10.13
2018-07-25T04:29:09.716Z,9.90
2018-07-25T04:31:37.764Z,8.63
2018-07-25T04:34:05.844Z,8.45
2018-07-25T04:36:33.912Z,11.00
2018-07-25T04:39:01.972Z,12.45
2018-07-25T04:41:30.010Z,11.55
2018-07-25T04:43:58.045Z,10.65
2018-07-25T04:46:26.221Z,10.13
2018-07-25T04:48:54.128Z,13.10
2018-07-25T04:51:22.168Z,9.63
2018-07-25T04:53:50.247Z,8.90
2018-07-25T04:56:18.307Z,10.10
2018-07-25T04:58:46.340Z,8.98
2018-07-25T05:01:14.373Z,13.50
2018-07-25T05:03:42.416Z,11.55
2018-07-25T05:06:10.459Z,10.10
2018-07-25T05:08:38.580Z,14.28
2018-07-25T05:11:06.620Z,17.23
2018-07-25T05:13:34.665Z,14.98
2018-07-25T05:16:02.723Z,10.55
2018-07-25T05:18:30.776Z,15.50
2018-07-25T05:20:58.816Z,13.20
2018-07-25T05:23:26.888Z,18.20
2018-07-25T05:25:54.929Z,15.00
2018-07-25T05:28:22.979Z,12.35
2018-07-25T05:30:51.016Z,13.78
2018-07-25T05:33:19.075Z,10.28
2018-07-25T05:35:47.136Z,18.27
2018-07-25T05:38:15.210Z,12.23
2018-07-25T05:40:43.259Z,13.72
2018-07-25T05:43:11.323Z,14.25
2018-07-25T05:45:39.387Z,14.30
2018-07-25T05:48:07.529Z,12.35
2018-07-25T05:50:35.579Z,10.45
2018-07-25T05:53:03.636Z,14.75
2018-07-25T05:55:31.677Z,13.72
2018-07-25T05:57:59.736Z,11.28
2018-07-25T06:00:27.791Z,15.78
2018-07-25T06:02:55.912Z,15.03
2018-07-25T06:05:23.896Z,15.80
2018-07-25T06:07:51.956Z,15.40
2018-07-25T06:10:19.996Z,15.50
2018-07-25T06:12:48.047Z,17.87
2018-07-25T06:15:16.084Z,14.80
2018-07-25T06:17:44.164Z,14.28
2018-07-25T06:20:12.200Z,12.82
2018-07-25T06:22:40.268Z,12.80
2018-07-25T06:25:08.300Z,15.63
2018-07-25T06:27:36.413Z,13.20
2018-07-25T06:30:04.795Z,15.28
2018-07-25T06:32:32.845Z,13.95
2018-07-25T06:35:00.895Z,17.48
2018-07-25T06:37:28.928Z,20.80
2018-07-25T06:39:56.977Z,17.35
2018-07-25T06:42:25.004Z,19.90
2018-07-25T06:44:53.055Z,20.75
2018-07-25T06:47:21.117Z,16.57
2018-07-25T06:49:49.156Z,22.10
2018-07-25T06:52:17.252Z,22.98
2018-07-25T06:54:45.668Z,23.50
2018-07-25T06:57:13.736Z,23.67
2018-07-25T06:59:41.795Z,30.12
2018-07-25T07:02:09.987Z,32.28
2018-07-25T07:04:38.056Z,27.52
2018-07-25T07:07:06.113Z,34.08
2018-07-25T07:09:34.192Z,26.30
2018-07-25T07:12:02.488Z,29.15
2018-07-25T07:14:30.533Z,36.30
2018-07-25T07:16:58.605Z,34.13
2018-07-25T07:19:26.644Z,38.73
2018-07-25T07:21:54.966Z,44.65
2018-07-25T07:24:23.032Z,35.68
2018-07-25T07:26:51.089Z,43.13
2018-07-25T07:29:19.120Z,49.70
2018-07-25T07:31:47.176Z,54.30
2018-07-25T07:34:15.231Z,53.02
2018-07-25T07:36:43.288Z,50.58
2018-07-25T07:39:13.124Z,59.90
2018-07-25T07:41:41.463Z,50.17
2018-07-25T07:44:09.567Z,58.33
2018-07-25T07:46:37.827Z,50.08
2018-07-25T07:49:05.999Z,47.65
2018-07-25T07:51:34.044Z,48.50
2018-07-25T07:54:02.382Z,57.67
2018-07-25T07:56:30.408Z,49.75
2018-07-25T07:58:58.682Z,45.15
2018-07-25T08:01:26.752Z,47.60
2018-07-25T08:03:54.835Z,57.57
2018-07-25T08:06:22.875Z,56.10
2018-07-25T08:08:51.168Z,70.07
2018-07-25T08:11:20.153Z,69.67
2018-07-25T08:13:49.455Z,65.93
2018-07-25T08:16:17.926Z,59.17
2018-07-25T08:18:45.972Z,81.20
2018-07-25T08:21:14.576Z,66.33
2018-07-25T08:23:43.580Z,91.67
2018-07-25T08:26:11.639Z,84.90
2018-07-25T08:28:39.721Z,104.73
2018-07-25T08:31:07.836Z,126.93
2018-07-25T08:33:35.913Z,100.00
2018-07-25T08:36:04.045Z,96.77
2018-07-25T08:38:37.742Z,118.40
2018-07-25T08:41:06.280Z,143.97
2018-07-25T08:43:35.323Z,134.00
2018-07-25T08:46:03.371Z,122.60
2018-07-25T08:48:31.469Z,128.53
2018-07-25T08:50:59.523Z,118.10
2018-07-25T08:53:27.773Z,119.40
2018-07-25T08:55:55.855Z,126.63
2018-07-25T08:58:23.900Z,134.20
2018-07-25T09:00:51.981Z,146.67
2018-07-25T09:03:20.032Z,155.70
2018-07-25T09:05:48.084Z,123.27
2018-07-25T09:08:16.132Z,142.37
2018-07-25T09:10:44.189Z,157.30
2018-07-25T09:13:12.228Z,160.23
2018-07-25T09:15:40.303Z,150.53
2018-07-25T09:18:08.394Z,159.43
2018-07-25T09:20:36.440Z,141.87
2018-07-25T09:23:04.483Z,132.60
2018-07-25T09:25:32.953Z,111.97
2018-07-25T09:28:01.012Z,156.03
2018-07-25T09:30:29.383Z,176.60
2018-07-25T09:32:57.439Z,199.37
2018-07-25T09:35:25.489Z,190.67
2018-07-25T09:37:53.572Z,152.00
2018-07-25T09:40:21.621Z,131.53
2018-07-25T09:42:49.692Z,180.27
2018-07-25T09:45:17.756Z,164.53
2018-07-25T09:47:45.812Z,207.23
2018-07-25T09:50:13.872Z,150.87
2018-07-25T09:52:41.935Z,143.23
2018-07-25T09:55:10.799Z,197.33
2018-07-25T09:57:38.915Z,177.83
2018-07-25T10:00:09.608Z,154.77
2018-07-25T10:02:38.148Z,155.10
2018-07-25T10:05:06.457Z,148.10
2018-07-25T10:07:34.535Z,117.47
2018-07-25T10:10:02.611Z,117.43
2018-07-25T10:12:30.664Z,175.80
2018-07-25T10:14:58.755Z,182.50
2018-07-25T10:17:26.847Z,188.53
2018-07-25T10:19:54.908Z,207.63
2018-07-25T10:22:22.956Z,190.07
2018-07-25T10:24:51.036Z,256.17
2018-07-25T10:27:19.119Z,169.60
2018-07-25T10:29:47.339Z,186.60
2018-07-25T10:32:15.411Z,226.67
2018-07-25T10:34:43.500Z,194.97
2018-07-25T10:37:11.576Z,240.67
2018-07-25T10:39:39.664Z,205.87
2018-07-25T10:42:07.936Z,226.67
2018-07-25T10:44:36.000Z,209.07
2018-07-25T10:47:04.051Z,232.73
2018-07-25T10:49:32.122Z,174.67
2018-07-25T10:52:00.197Z,205.97
2018-07-25T10:54:28.248Z,195.33
2018-07-25T10:56:56.324Z,229.07
2018-07-25T10:59:24.400Z,184.40
2018-07-25T11:01:52.496Z,196.57
2018-07-25T11:04:20.612Z,198.77
2018-07-25T11:06:48.703Z,247.10
2018-07-25T11:09:16.773Z,160.73
2018-07-25T11:11:44.835Z,233.90
2018-07-25T11:14:12.940Z,152.30
2018-07-25T11:16:41.016Z,198.80
2018-07-25T11:19:09.067Z,221.73
2018-07-25T11:21:37.124Z,274.27
2018-07-25T11:24:05.264Z,258.33
2018-07-25T11:26:33.357Z,190.47
2018-07-25T11:29:01.415Z,175.20
2018-07-25T11:31:29.497Z,186.60
2018-07-25T11:33:57.561Z,203.20
2018-07-25T11:36:25.612Z,225.33
2018-07-25T11:38:53.671Z,130.43
2018-07-25T11:41:21.721Z,124.63
2018-07-25T11:43:49.884Z,126.70
2018-07-25T11:46:18.024Z,135.30
2018-07-25T11:48:46.073Z,144.90
2018-07-25T11:51:14.152Z,154.07
2018-07-25T11:53:42.200Z,105.57
2018-07-25T11:56:10.276Z,91.47
2018-07-25T11:58:38.324Z,121.80
2018-07-25T12:01:06.755Z,137.67
2018-07-25T12:03:34.792Z,109.50
2018-07-25T12:06:02.863Z,141.67
2018-07-25T12:08:30.916Z,126.57
2018-07-25T12:10:58.976Z,112.87
2018-07-25T12:13:27.044Z,150.83
2018-07-25T12:15:55.120Z,107.13
2018-07-25T12:18:23.185Z,108.77
2018-07-25T12:20:51.228Z,116.63
2018-07-25T12:23:19.284Z,128.70
2018-07-25T12:25:47.360Z,136.43
2018-07-25T12:28:15.551Z,166.03
2018-07-25T12:30:43.602Z,162.07
2018-07-25T12:33:11.732Z,169.30
2018-07-25T12:35:39.788Z,130.93
2018-07-25T12:38:07.844Z,166.63
2018-07-25T12:40:35.936Z,129.63
2018-07-25T12:43:04.017Z,165.73
2018-07-25T12:45:32.088Z,148.40
2018-07-25T12:48:00.155Z,109.60
2018-07-25T12:50:28.203Z,105.23
2018-07-25T12:52:56.261Z,139.47
2018-07-25T12:55:24.313Z,105.17
2018-07-25T12:57:52.388Z,115.63
2018-07-25T13:00:20.448Z,158.03
2018-07-25T13:02:48.553Z,144.47
2018-07-25T13:05:16.571Z,152.30
2018-07-25T13:07:44.628Z,166.30
2018-07-25T13:10:12.711Z,145.40
2018-07-25T13:12:40.776Z,206.97
2018-07-25T13:15:08.864Z,155.03
2018-07-25T13:17:36.933Z,170.87
2018-07-25T13:20:05.355Z,202.27
2018-07-25T13:22:33.452Z,189.97
2018-07-25T13:25:01.485Z,170.53
2018-07-25T13:27:29.600Z,176.93
2018-07-25T13:29:57.668Z,133.87
2018-07-25T13:32:25.724Z,175.90
2018-07-25T13:34:53.796Z,131.60
2018-07-25T13:37:21.867Z,119.20
2018-07-25T13:39:50.008Z,153.73
2018-07-25T13:42:18.104Z,90.60
2018-07-25T13:44:46.177Z,119.83
2018-07-25T13:47:14.270Z,103.23
2018-07-25T13:49:42.303Z,79.07
2018-07-25T13:52:10.412Z,127.67
2018-07-25T13:54:38.500Z,122.63
2018-07-25T13:57:06.567Z,146.23
2018-07-25T13:59:34.612Z,151.07
2018-07-25T14:02:02.700Z,121.03
2018-07-25T14:04:30.765Z,151.77
2018-07-25T14:06:58.824Z,145.87
2018-07-25T14:09:26.885Z,129.37
2018-07-25T14:11:54.974Z,132.63
2018-07-25T14:14:23.032Z,111.60
2018-07-25T14:16:51.136Z,146.47
2018-07-25T14:19:19.249Z,153.67
2018-07-25T14:21:47.312Z,156.83
2018-07-25T14:24:15.427Z,99.93
2018-07-25T14:26:43.456Z,135.23
2018-07-25T14:29:11.594Z,118.67
2018-07-25T14:31:39.572Z,102.17
2018-07-25T14:34:07.658Z,103.00
2018-07-25T14:36:35.697Z,106.83
2018-07-25T14:39:04.168Z,86.47
2018-07-25T14:41:32.241Z,68.60
2018-07-25T14:44:00.293Z,81.57
2018-07-25T14:46:28.328Z,79.83
2018-07-25T14:48:56.407Z,81.40
2018-07-25T14:51:24.572Z,88.57
2018-07-25T14:53:52.503Z,69.27
2018-07-25T14:56:20.536Z,76.70
2018-07-25T14:58:48.568Z,51.80
2018-07-25T15:01:16.671Z,80.03
2018-07-25T15:03:44.697Z,74.63
2018-07-25T15:06:12.781Z,85.80
2018-07-25T15:08:40.854Z,82.75
2018-07-25T15:11:08.913Z,93.97
2018-07-25T15:13:36.989Z,56.58
2018-07-25T15:16:05.121Z,84.17
2018-07-25T15:18:33.184Z,59.20
2018-07-25T15:21:01.232Z,60.23
2018-07-25T15:23:40.496Z,56.08
2018-07-25T15:26:08.512Z,48.20
2018-07-25T15:28:36.588Z,54.80
2018-07-25T15:31:04.660Z,65.00
2018-07-25T15:33:32.749Z,62.40
2018-07-25T15:36:00.808Z,48.55
2018-07-25T15:38:28.867Z,47.33
2018-07-25T15:40:56.939Z,43.78
2018-07-25T15:43:25.085Z,58.40
2018-07-25T15:45:53.136Z,48.23
2018-07-25T15:48:21.211Z,57.45
2018-07-25T15:50:49.244Z,47.03
2018-07-25T15:53:17.308Z,56.08
2018-07-25T15:55:45.341Z,36.42
2018-07-25T15:58:13.401Z,44.53
2018-07-25T16:00:41.457Z,37.25
2018-07-25T16:03:09.492Z,34.03
2018-07-25T16:05:37.743Z,51.33
2018-07-25T16:08:05.863Z,40.78
2018-07-25T16:10:33.912Z,42.62
2018-07-25T16:13:01.953Z,55.78
2018-07-25T16:15:30.036Z,64.95
2018-07-25T16:17:58.307Z,56.55
2018-07-25T16:20:26.379Z,35.90
2018-07-25T16:22:54.443Z,58.05
2018-07-25T16:25:22.500Z,45.92
2018-07-25T16:27:50.571Z,45.52
2018-07-25T16:30:18.652Z,58.35
2018-07-25T16:32:46.704Z,36.58
2018-07-25T16:35:14.800Z,37.23
2018-07-25T16:37:42.840Z,47.30
2018-07-25T16:40:10.880Z,30.82
2018-07-25T16:42:38.951Z,55.33
2018-07-25T16:45:07.009Z,39.92
2018-07-25T16:47:35.071Z,34.65
2018-07-25T16:50:03.128Z,44.70
2018-07-25T16:52:31.172Z,53.30
2018-07-25T16:54:59.232Z,39.92
2018-07-25T16:57:27.306Z,39.83
2018-07-25T16:59:55.352Z,41.35
2018-07-25T17:02:23.392Z,35.75
2018-07-25T17:04:51.443Z,38.78
2018-07-25T17:07:19.497Z,46.37
2018-07-25T17:09:47.548Z,34.43
2018-07-25T17:12:15.594Z,36.15
2018-07-25T17:14:43.725Z,36.00
2018-07-25T17:17:11.703Z,39.38
2018-07-25T17:19:39.780Z,33.90
2018-07-25T17:22:07.833Z,35.60
2018-07-25T17:24:35.891Z,37.35
2018-07-25T17:27:03.923Z,45.12
2018-07-25T17:29:32.007Z,46.23
2018-07-25T17:32:00.084Z,42.05
2018-07-25T17:34:28.157Z,44.73
2018-07-25T17:36:56.228Z,43.83
2018-07-25T17:39:24.272Z,40.03
2018-07-25T17:41:52.360Z,60.85
2018-07-25T17:44:20.412Z,44.23
2018-07-25T17:46:48.490Z,50.50
2018-07-25T17:49:16.497Z,43.00
2018-07-25T17:51:44.573Z,39.67
2018-07-25T17:54:12.611Z,41.02
2018-07-25T17:56:40.660Z,37.17
2018-07-25T17:59:08.731Z,47.95
2018-07-25T18:01:36.792Z,59.85
2018-07-25T18:04:04.884Z,57.23
2018-07-25T18:06:32.975Z,59.33
2018-07-25T18:09:01.028Z,41.58
2018-07-25T18:11:29.108Z,37.90
2018-07-25T18:14:02.495Z,47.35
2018-07-25T18:16:30.556Z,32.05
2018-07-25T18:18:58.631Z,49.03
2018-07-25T18:21:26.685Z,41.68
2018-07-25T18:23:54.740Z,40.48
2018-07-25T18:26:22.824Z,45.85
2018-07-25T18:28:50.867Z,51.42
2018-07-25T18:31:18.920Z,43.98
2018-07-25T18:33:46.986Z,53.52
2018-07-25T18:36:15.049Z,43.48
2018-07-25T18:38:43.099Z,32.60
2018-07-25T18:41:11.163Z,46.25
2018-07-25T18:43:39.205Z,36.48
2018-07-25T18:46:07.311Z,59.38
2018-07-25T18:48:35.360Z,39.38
2018-07-25T18:51:03.449Z,34.83
2018-07-25T18:53:31.490Z,39.73
2018-07-25T18:55:59.535Z,54.48
2018-07-25T18:58:27.581Z,50.65
2018-07-25T19:00:55.646Z,55.48
2018-07-25T19:03:23.672Z,50.10
2018-07-25T19:05:51.726Z,50.80
2018-07-25T19:08:19.818Z,47.27
2018-07-25T19:10:47.856Z,51.02
2018-07-25T19:13:21.417Z,38.00
2018-07-25T19:15:49.503Z,44.10
2018-07-25T19:18:17.553Z,49.93
2018-07-25T19:20:45.578Z,43.35
2018-07-25T19:23:13.649Z,40.15
2018-07-25T19:25:41.711Z,54.80
2018-07-25T19:28:09.756Z,42.85
2018-07-25T19:30:37.788Z,46.60
2018-07-25T19:33:05.868Z,37.55
2018-07-25T19:35:33.935Z,32.05
2018-07-25T19:38:01.960Z,40.78
2018-07-25T19:40:30.015Z,43.40
2018-07-25T19:42:58.064Z,49.33
2018-07-25T19:45:26.124Z,33.63
2018-07-25T19:47:54.196Z,35.05
2018-07-25T19:50:22.230Z,30.82
2018-07-25T19:52:50.272Z,38.48
2018-07-25T19:55:18.315Z,36.30
2018-07-25T19:57:46.364Z,24.35
2018-07-25T20:00:16.551Z,21.62
2018-07-25T20:02:42.498Z,30.00
2018-07-25T20:05:10.540Z,28.85
2018-07-25T20:07:38.585Z,28.07
2018-07-25T20:10:06.649Z,42.15
2018-07-25T20:12:34.717Z,35.00
2018-07-25T20:15:08.068Z,29.82
2018-07-25T20:17:36.101Z,29.87
2018-07-25T20:20:04.435Z,34.58
2018-07-25T20:22:32.505Z,38.73
2018-07-25T20:25:00.532Z,28.70
2018-07-25T20:27:28.596Z,28.15
2018-07-25T20:29:56.648Z,23.05
2018-07-25T20:32:24.692Z,27.60
2018-07-25T20:34:52.751Z,32.05
2018-07-25T20:37:20.913Z,32.33
2018-07-25T20:39:48.955Z,29.80
2018-07-25T20:42:17.067Z,35.78
2018-07-25T20:44:45.073Z,30.23
2018-07-25T20:47:13.152Z,24.82
2018-07-25T20:49:41.212Z,22.52
2018-07-25T20:52:09.245Z,27.15
2018-07-25T20:54:37.283Z,25.85
2018-07-25T20:57:05.330Z,27.48
2018-07-25T20:59:33.368Z,33.15
2018-07-25T21:02:01.428Z,27.37
2018-07-25T21:04:29.464Z,32.35
2018-07-25T21:06:57.520Z,33.53
2018-07-25T21:09:25.555Z,28.62
2018-07-25T21:11:53.612Z,35.38
2018-07-25T21:14:21.640Z,32.13
2018-07-25T21:16:49.689Z,23.05
2018-07-25T21:19:17.738Z,24.25
2018-07-25T21:21:45.804Z,17.75
2018-07-25T21:24:14.676Z,22.50
2018-07-25T21:26:42.713Z,30.48
2018-07-25T21:29:10.753Z,30.40
2018-07-25T21:31:38.789Z,24.32
2018-07-25T21:34:06.856Z,24.37
2018-07-25T21:36:34.884Z,19.07
2018-07-25T21:39:02.986Z,19.27
2018-07-25T21:41:31.014Z,19.27
2018-07-25T21:43:59.055Z,30.75
2018-07-25T21:46:27.089Z,18.95
2018-07-25T21:48:55.128Z,24.80
2018-07-25T21:51:23.155Z,24.72
2018-07-25T21:53:51.196Z,22.05
2018-07-25T21:56:19.271Z,18.50
2018-07-25T21:58:47.280Z,19.30
2018-07-25T22:01:17.723Z,24.72
2018-07-25T22:03:46.088Z,15.10
2018-07-25T22:06:14.579Z,19.00
2018-07-25T22:08:42.628Z,19.55
2018-07-25T22:11:10.720Z,17.73
2018-07-25T22:13:42.979Z,17.52
2018-07-25T22:16:11.130Z,18.05
2018-07-25T22:18:39.200Z,20.37
2018-07-25T22:21:07.308Z,21.97
2018-07-25T22:23:35.356Z,16.73
2018-07-25T22:26:03.405Z,22.35
2018-07-25T22:28:31.476Z,19.27
2018-07-25T22:30:59.517Z,18.70
2018-07-25T22:33:27.612Z,17.32
2018-07-25T22:35:55.648Z,17.45
2018-07-25T22:38:23.706Z,19.92
2018-07-25T22:40:51.752Z,15.23
2018-07-25T22:43:19.828Z,14.13
2018-07-25T22:45:47.866Z,16.10
2018-07-25T22:48:15.909Z,12.93
2018-07-25T22:50:43.987Z,12.90
2018-07-25T22:53:12.031Z,15.28
2018-07-25T22:55:40.080Z,15.85
2018-07-25T22:58:08.132Z,19.23
2018-07-25T23:00:36.452Z,15.13
2018-07-25T23:03:04.519Z,18.05
2018-07-25T23:05:32.580Z,19.40
2018-07-25T23:08:00.644Z,15.23
2018-07-25T23:10:28.728Z,17.40
2018-07-25T23:12:56.788Z,17.42
2018-07-25T23:15:24.840Z,16.62
2018-07-25T23:17:52.912Z,14.23
2018-07-25T23:20:21.008Z,16.93
2018-07-25T23:23:00.188Z,13.13
2018-07-25T23:25:28.620Z,10.80
2018-07-25T23:27:57.816Z,13.90
2018-07-25T23:30:27.022Z,13.95
2018-07-25T23:32:55.064Z,13.45
2018-07-25T23:35:23.155Z,18.15
2018-07-25T23:37:51.755Z,13.83
2018-07-25T23:40:20.127Z,13.35
2018-07-25T23:42:48.796Z,17.35
2018-07-25T23:45:16.931Z,14.80
2018-07-25T23:47:44.964Z,14.35
2018-07-25T23:50:13.018Z,15.70
2018-07-25T23:52:41.052Z,12.85
2018-07-25T23:55:09.568Z,17.42
2018-07-25T23:57:37.596Z,17.05
